sensor_id;sensor_type;location;lat;lon;timestamp;P1;durP1;ratioP1;P2;durP2;ratioP2
67528;SDS011;54366;51.980;5.856;2022-12-07T00:01:18;6.43;;;5.38;;
67528;SDS011;54366;51.980;5.856;2022-12-07T00:03:52;6.22;;;5.28;;
67528;SDS011;54366;51.980;5.856;2022-12-07T00:06:22;6.10;;;5.28;;
67528;SDS011;54366;51.980;5.856;2022-12-07T00:08:49;5.97;;;5.35;;
67528;SDS011;54366;51.980;5.856;2022-12-07T00:11:16;7.20;;;5.35;;
67528;SDS011;54366;51.980;5.856;2022-12-07T00:13:44;8.10;;;5.72;;
67528;SDS011;54366;51.980;5.856;2022-12-07T00:16:13;6.65;;;4.80;;
67528;SDS011;54366;51.980;5.856;2022-12-07T00:18:41;6.22;;;4.80;;
67528;SDS011;54366;51.980;5.856;2022-12-07T00:21:10;5.85;;;5.03;;
67528;SDS011;54366;51.980;5.856;2022-12-07T00:23:41;6.45;;;4.97;;
67528;SDS011;54366;51.980;5.856;2022-12-07T00:26:09;6.43;;;5.05;;
67528;SDS011;54366;51.980;5.856;2022-12-07T00:29:00;7.07;;;5.10;;
67528;SDS011;54366;51.980;5.856;2022-12-07T00:31:30;5.78;;;4.47;;
67528;SDS011;54366;51.980;5.856;2022-12-07T00:34:04;5.28;;;4.30;;
67528;SDS011;54366;51.980;5.856;2022-12-07T00:36:32;7.63;;;4.90;;
67528;SDS011;54366;51.980;5.856;2022-12-07T00:39:00;6.30;;;4.78;;
67528;SDS011;54366;51.980;5.856;2022-12-07T00:41:28;5.00;;;4.32;;
67528;SDS011;54366;51.980;5.856;2022-12-07T00:43:55;6.53;;;5.00;;
67528;SDS011;54366;51.980;5.856;2022-12-07T00:46:22;6.03;;;4.43;;
67528;SDS011;54366;51.980;5.856;2022-12-07T00:48:49;6.60;;;4.40;;
67528;SDS011;54366;51.980;5.856;2022-12-07T00:51:17;7.35;;;4.50;;
67528;SDS011;54366;51.980;5.856;2022-12-07T00:53:45;7.07;;;4.70;;
67528;SDS011;54366;51.980;5.856;2022-12-07T00:56:16;7.60;;;4.82;;
67528;SDS011;54366;51.980;5.856;2022-12-07T00:58:53;6.50;;;5.20;;
67528;SDS011;54366;51.980;5.856;2022-12-07T01:01:21;7.05;;;5.10;;
67528;SDS011;54366;51.980;5.856;2022-12-07T01:03:48;6.57;;;5.18;;
67528;SDS011;54366;51.980;5.856;2022-12-07T01:06:15;6.55;;;4.90;;
67528;SDS011;54366;51.980;5.856;2022-12-07T01:08:42;6.28;;;4.80;;
67528;SDS011;54366;51.980;5.856;2022-12-07T01:11:09;6.85;;;4.88;;
67528;SDS011;54366;51.980;5.856;2022-12-07T01:13:37;8.55;;;5.32;;
67528;SDS011;54366;51.980;5.856;2022-12-07T01:16:04;7.80;;;4.82;;
67528;SDS011;54366;51.980;5.856;2022-12-07T01:18:32;6.93;;;5.00;;
67528;SDS011;54366;51.980;5.856;2022-12-07T01:21:01;5.32;;;3.88;;
67528;SDS011;54366;51.980;5.856;2022-12-07T01:23:32;6.85;;;4.57;;
67528;SDS011;54366;51.980;5.856;2022-12-07T01:26:01;6.18;;;4.90;;
67528;SDS011;54366;51.980;5.856;2022-12-07T01:28:29;6.90;;;4.53;;
67528;SDS011;54366;51.980;5.856;2022-12-07T01:30:59;5.95;;;4.43;;
67528;SDS011;54366;51.980;5.856;2022-12-07T01:33:31;6.03;;;4.40;;
67528;SDS011;54366;51.980;5.856;2022-12-07T01:36:06;4.75;;;3.60;;
67528;SDS011;54366;51.980;5.856;2022-12-07T01:38:54;6.43;;;4.30;;
67528;SDS011;54366;51.980;5.856;2022-12-07T01:41:23;6.80;;;4.47;;
67528;SDS011;54366;51.980;5.856;2022-12-07T01:44:10;7.20;;;4.30;;
67528;SDS011;54366;51.980;5.856;2022-12-07T01:46:40;6.80;;;4.63;;
67528;SDS011;54366;51.980;5.856;2022-12-07T01:49:09;6.95;;;4.65;;
67528;SDS011;54366;51.980;5.856;2022-12-07T01:51:40;5.38;;;4.07;;
67528;SDS011;54366;51.980;5.856;2022-12-07T01:54:08;6.97;;;4.43;;
67528;SDS011;54366;51.980;5.856;2022-12-07T01:56:36;5.93;;;4.25;;
67528;SDS011;54366;51.980;5.856;2022-12-07T01:59:04;7.32;;;4.80;;
67528;SDS011;54366;51.980;5.856;2022-12-07T02:01:31;5.97;;;4.20;;
67528;SDS011;54366;51.980;5.856;2022-12-07T02:03:57;6.00;;;4.38;;
67528;SDS011;54366;51.980;5.856;2022-12-07T02:06:24;5.90;;;4.18;;
67528;SDS011;54366;51.980;5.856;2022-12-07T02:08:51;7.78;;;4.80;;
67528;SDS011;54366;51.980;5.856;2022-12-07T02:11:19;6.47;;;4.32;;
67528;SDS011;54366;51.980;5.856;2022-12-07T02:13:46;7.72;;;5.03;;
67528;SDS011;54366;51.980;5.856;2022-12-07T02:22:32;6.88;;;4.00;;
67528;SDS011;54366;51.980;5.856;2022-12-07T02:25:38;5.38;;;4.28;;
67528;SDS011;54366;51.980;5.856;2022-12-07T02:28:34;6.45;;;3.90;;
67528;SDS011;54366;51.980;5.856;2022-12-07T02:31:06;7.45;;;4.00;;
67528;SDS011;54366;51.980;5.856;2022-12-07T02:33:41;6.55;;;4.00;;
67528;SDS011;54366;51.980;5.856;2022-12-07T02:36:17;5.70;;;3.55;;
67528;SDS011;54366;51.980;5.856;2022-12-07T02:39:00;7.15;;;3.53;;
67528;SDS011;54366;51.980;5.856;2022-12-07T02:41:33;5.15;;;3.78;;
67528;SDS011;54366;51.980;5.856;2022-12-07T02:44:07;6.15;;;3.90;;
67528;SDS011;54366;51.980;5.856;2022-12-07T02:46:37;4.85;;;3.78;;
67528;SDS011;54366;51.980;5.856;2022-12-07T02:49:08;4.93;;;3.40;;
67528;SDS011;54366;51.980;5.856;2022-12-07T02:51:39;6.40;;;3.85;;
67528;SDS011;54366;51.980;5.856;2022-12-07T02:54:10;5.65;;;3.50;;
67528;SDS011;54366;51.980;5.856;2022-12-07T03:02:53;5.55;;;3.50;;
67528;SDS011;54366;51.980;5.856;2022-12-07T03:11:45;4.97;;;3.00;;
67528;SDS011;54366;51.980;5.856;2022-12-07T03:14:24;4.50;;;2.85;;
67528;SDS011;54366;51.980;5.856;2022-12-07T03:16:57;5.03;;;3.10;;
67528;SDS011;54366;51.980;5.856;2022-12-07T03:19:38;7.18;;;2.83;;
67528;SDS011;54366;51.980;5.856;2022-12-07T03:22:07;4.53;;;2.50;;
67528;SDS011;54366;51.980;5.856;2022-12-07T03:24:40;3.97;;;2.58;;
67528;SDS011;54366;51.980;5.856;2022-12-07T03:29:46;5.35;;;2.65;;
67528;SDS011;54366;51.980;5.856;2022-12-07T03:32:42;6.03;;;2.45;;
67528;SDS011;54366;51.980;5.856;2022-12-07T03:35:36;8.02;;;3.40;;
67528;SDS011;54366;51.980;5.856;2022-12-07T03:38:17;5.70;;;2.50;;
67528;SDS011;54366;51.980;5.856;2022-12-07T03:41:01;4.35;;;2.40;;
67528;SDS011;54366;51.980;5.856;2022-12-07T03:43:36;4.45;;;2.60;;
67528;SDS011;54366;51.980;5.856;2022-12-07T03:46:15;6.32;;;2.88;;
67528;SDS011;54366;51.980;5.856;2022-12-07T03:49:18;4.18;;;2.65;;
67528;SDS011;54366;51.980;5.856;2022-12-07T03:57:56;4.35;;;2.70;;
67528;SDS011;54366;51.980;5.856;2022-12-07T04:00:30;4.40;;;2.45;;
67528;SDS011;54366;51.980;5.856;2022-12-07T04:02:56;4.13;;;2.55;;
67528;SDS011;54366;51.980;5.856;2022-12-07T04:05:23;5.82;;;3.40;;
67528;SDS011;54366;51.980;5.856;2022-12-07T04:07:49;4.30;;;2.75;;
67528;SDS011;54366;51.980;5.856;2022-12-07T04:10:16;4.25;;;2.80;;
67528;SDS011;54366;51.980;5.856;2022-12-07T04:12:43;4.65;;;2.75;;
67528;SDS011;54366;51.980;5.856;2022-12-07T04:15:09;4.70;;;2.50;;
67528;SDS011;54366;51.980;5.856;2022-12-07T04:17:36;3.92;;;2.40;;
67528;SDS011;54366;51.980;5.856;2022-12-07T04:20:02;3.92;;;2.45;;
67528;SDS011;54366;51.980;5.856;2022-12-07T04:22:29;4.72;;;2.33;;
67528;SDS011;54366;51.980;5.856;2022-12-07T04:24:56;5.18;;;2.50;;
67528;SDS011;54366;51.980;5.856;2022-12-07T04:27:22;5.07;;;2.53;;
67528;SDS011;54366;51.980;5.856;2022-12-07T04:29:48;5.47;;;2.50;;
67528;SDS011;54366;51.980;5.856;2022-12-07T04:32:15;3.85;;;2.55;;
67528;SDS011;54366;51.980;5.856;2022-12-07T04:34:41;4.15;;;2.30;;
67528;SDS011;54366;51.980;5.856;2022-12-07T04:37:07;3.90;;;2.20;;
67528;SDS011;54366;51.980;5.856;2022-12-07T04:39:34;5.35;;;2.25;;
67528;SDS011;54366;51.980;5.856;2022-12-07T04:42:00;5.53;;;2.45;;
67528;SDS011;54366;51.980;5.856;2022-12-07T04:44:28;3.92;;;1.98;;
67528;SDS011;54366;51.980;5.856;2022-12-07T04:46:55;3.83;;;2.05;;
67528;SDS011;54366;51.980;5.856;2022-12-07T04:49:22;4.63;;;2.05;;
67528;SDS011;54366;51.980;5.856;2022-12-07T04:51:49;6.40;;;2.30;;
67528;SDS011;54366;51.980;5.856;2022-12-07T04:54:16;5.10;;;1.90;;
67528;SDS011;54366;51.980;5.856;2022-12-07T04:56:43;4.88;;;2.47;;
67528;SDS011;54366;51.980;5.856;2022-12-07T04:59:10;4.65;;;2.20;;
67528;SDS011;54366;51.980;5.856;2022-12-07T05:01:37;3.25;;;1.90;;
67528;SDS011;54366;51.980;5.856;2022-12-07T05:04:04;3.85;;;2.13;;
67528;SDS011;54366;51.980;5.856;2022-12-07T05:06:30;5.20;;;2.13;;
67528;SDS011;54366;51.980;5.856;2022-12-07T05:08:57;4.25;;;2.13;;
67528;SDS011;54366;51.980;5.856;2022-12-07T05:11:23;5.93;;;2.88;;
67528;SDS011;54366;51.980;5.856;2022-12-07T05:14:12;4.00;;;2.17;;
67528;SDS011;54366;51.980;5.856;2022-12-07T05:16:41;3.90;;;2.00;;
67528;SDS011;54366;51.980;5.856;2022-12-07T05:19:08;5.13;;;1.92;;
67528;SDS011;54366;51.980;5.856;2022-12-07T05:21:36;3.72;;;2.03;;
67528;SDS011;54366;51.980;5.856;2022-12-07T05:24:03;5.35;;;1.65;;
67528;SDS011;54366;51.980;5.856;2022-12-07T05:26:30;7.07;;;2.00;;
67528;SDS011;54366;51.980;5.856;2022-12-07T05:28:57;3.45;;;1.40;;
67528;SDS011;54366;51.980;5.856;2022-12-07T05:31:23;4.40;;;1.75;;
67528;SDS011;54366;51.980;5.856;2022-12-07T05:33:51;2.72;;;1.40;;
67528;SDS011;54366;51.980;5.856;2022-12-07T05:36:17;2.97;;;1.35;;
67528;SDS011;54366;51.980;5.856;2022-12-07T05:38:43;4.53;;;1.88;;
67528;SDS011;54366;51.980;5.856;2022-12-07T05:41:11;2.90;;;1.20;;
67528;SDS011;54366;51.980;5.856;2022-12-07T05:43:58;3.05;;;0.98;;
67528;SDS011;54366;51.980;5.856;2022-12-07T05:46:25;4.43;;;1.55;;
67528;SDS011;54366;51.980;5.856;2022-12-07T05:48:51;5.65;;;1.63;;
67528;SDS011;54366;51.980;5.856;2022-12-07T05:51:18;3.78;;;2.10;;
67528;SDS011;54366;51.980;5.856;2022-12-07T05:53:44;5.53;;;3.17;;
67528;SDS011;54366;51.980;5.856;2022-12-07T05:56:11;5.13;;;2.08;;
67528;SDS011;54366;51.980;5.856;2022-12-07T05:58:37;3.65;;;1.98;;
67528;SDS011;54366;51.980;5.856;2022-12-07T06:01:22;5.97;;;1.70;;
67528;SDS011;54366;51.980;5.856;2022-12-07T06:03:49;5.90;;;2.22;;
67528;SDS011;54366;51.980;5.856;2022-12-07T06:06:15;4.57;;;1.90;;
67528;SDS011;54366;51.980;5.856;2022-12-07T06:08:42;3.75;;;1.90;;
67528;SDS011;54366;51.980;5.856;2022-12-07T06:11:08;6.35;;;2.10;;
67528;SDS011;54366;51.980;5.856;2022-12-07T06:13:53;6.65;;;2.20;;
67528;SDS011;54366;51.980;5.856;2022-12-07T06:16:19;6.07;;;2.13;;
67528;SDS011;54366;51.980;5.856;2022-12-07T06:18:46;3.83;;;1.95;;
67528;SDS011;54366;51.980;5.856;2022-12-07T06:21:12;3.00;;;1.70;;
67528;SDS011;54366;51.980;5.856;2022-12-07T06:23:40;4.57;;;2.03;;
67528;SDS011;54366;51.980;5.856;2022-12-07T06:26:06;3.45;;;1.80;;
67528;SDS011;54366;51.980;5.856;2022-12-07T06:28:32;3.83;;;1.80;;
67528;SDS011;54366;51.980;5.856;2022-12-07T06:31:01;3.53;;;1.67;;
67528;SDS011;54366;51.980;5.856;2022-12-07T06:33:28;3.53;;;1.65;;
67528;SDS011;54366;51.980;5.856;2022-12-07T06:35:55;3.17;;;1.52;;
67528;SDS011;54366;51.980;5.856;2022-12-07T06:38:21;3.40;;;1.50;;
67528;SDS011;54366;51.980;5.856;2022-12-07T06:40:47;2.72;;;1.50;;
67528;SDS011;54366;51.980;5.856;2022-12-07T06:43:14;5.03;;;1.80;;
67528;SDS011;54366;51.980;5.856;2022-12-07T06:45:40;3.20;;;1.20;;
67528;SDS011;54366;51.980;5.856;2022-12-07T06:48:07;3.30;;;1.38;;
67528;SDS011;54366;51.980;5.856;2022-12-07T06:50:33;3.67;;;1.10;;
67528;SDS011;54366;51.980;5.856;2022-12-07T06:52:59;2.70;;;1.20;;
67528;SDS011;54366;51.980;5.856;2022-12-07T06:55:26;2.35;;;1.15;;
67528;SDS011;54366;51.980;5.856;2022-12-07T06:57:52;3.83;;;1.35;;
67528;SDS011;54366;51.980;5.856;2022-12-07T07:00:18;3.78;;;1.80;;
67528;SDS011;54366;51.980;5.856;2022-12-07T07:02:45;3.55;;;1.40;;
67528;SDS011;54366;51.980;5.856;2022-12-07T07:05:11;2.80;;;1.13;;
67528;SDS011;54366;51.980;5.856;2022-12-07T07:07:37;2.75;;;1.10;;
67528;SDS011;54366;51.980;5.856;2022-12-07T07:10:04;4.43;;;1.27;;
67528;SDS011;54366;51.980;5.856;2022-12-07T07:12:31;2.45;;;1.00;;
67528;SDS011;54366;51.980;5.856;2022-12-07T07:14:57;3.17;;;0.98;;
67528;SDS011;54366;51.980;5.856;2022-12-07T07:17:24;3.20;;;1.08;;
67528;SDS011;54366;51.980;5.856;2022-12-07T07:19:50;4.28;;;1.10;;
67528;SDS011;54366;51.980;5.856;2022-12-07T07:22:16;3.53;;;1.00;;
67528;SDS011;54366;51.980;5.856;2022-12-07T07:24:42;2.80;;;1.13;;
67528;SDS011;54366;51.980;5.856;2022-12-07T07:27:09;4.50;;;1.30;;
67528;SDS011;54366;51.980;5.856;2022-12-07T07:29:36;3.60;;;1.10;;
67528;SDS011;54366;51.980;5.856;2022-12-07T07:32:02;4.88;;;1.38;;
67528;SDS011;54366;51.980;5.856;2022-12-07T07:34:28;3.35;;;1.27;;
67528;SDS011;54366;51.980;5.856;2022-12-07T07:36:55;2.13;;;1.10;;
67528;SDS011;54366;51.980;5.856;2022-12-07T07:39:21;4.90;;;1.30;;
67528;SDS011;54366;51.980;5.856;2022-12-07T07:41:47;4.90;;;1.48;;
67528;SDS011;54366;51.980;5.856;2022-12-07T07:44:23;3.28;;;1.52;;
67528;SDS011;54366;51.980;5.856;2022-12-07T07:46:49;4.00;;;1.35;;
67528;SDS011;54366;51.980;5.856;2022-12-07T07:49:16;2.70;;;1.30;;
67528;SDS011;54366;51.980;5.856;2022-12-07T07:51:42;4.50;;;1.30;;
67528;SDS011;54366;51.980;5.856;2022-12-07T07:54:08;5.15;;;1.60;;
67528;SDS011;54366;51.980;5.856;2022-12-07T07:56:34;4.43;;;1.52;;
67528;SDS011;54366;51.980;5.856;2022-12-07T07:59:00;5.18;;;1.70;;
67528;SDS011;54366;51.980;5.856;2022-12-07T08:01:27;3.40;;;1.90;;
67528;SDS011;54366;51.980;5.856;2022-12-07T08:03:53;4.20;;;1.90;;
67528;SDS011;54366;51.980;5.856;2022-12-07T08:06:19;4.63;;;2.38;;
67528;SDS011;54366;51.980;5.856;2022-12-07T08:08:46;7.53;;;2.97;;
67528;SDS011;54366;51.980;5.856;2022-12-07T08:11:12;7.82;;;3.08;;
67528;SDS011;54366;51.980;5.856;2022-12-07T08:13:38;5.00;;;2.75;;
67528;SDS011;54366;51.980;5.856;2022-12-07T08:16:08;6.40;;;3.58;;
67528;SDS011;54366;51.980;5.856;2022-12-07T08:18:37;7.90;;;2.90;;
67528;SDS011;54366;51.980;5.856;2022-12-07T08:21:04;5.30;;;2.40;;
67528;SDS011;54366;51.980;5.856;2022-12-07T08:23:31;5.15;;;2.25;;
67528;SDS011;54366;51.980;5.856;2022-12-07T08:26:00;3.30;;;1.80;;
67528;SDS011;54366;51.980;5.856;2022-12-07T08:28:28;4.18;;;1.60;;
67528;SDS011;54366;51.980;5.856;2022-12-07T08:31:02;3.33;;;1.30;;
67528;SDS011;54366;51.980;5.856;2022-12-07T08:33:30;3.85;;;1.50;;
67528;SDS011;54366;51.980;5.856;2022-12-07T08:36:04;6.63;;;1.75;;
67528;SDS011;54366;51.980;5.856;2022-12-07T08:38:33;7.03;;;1.92;;
67528;SDS011;54366;51.980;5.856;2022-12-07T08:41:03;4.57;;;1.55;;
67528;SDS011;54366;51.980;5.856;2022-12-07T08:43:30;5.40;;;1.40;;
67528;SDS011;54366;51.980;5.856;2022-12-07T08:46:40;4.75;;;1.10;;
67528;SDS011;54366;51.980;5.856;2022-12-07T08:48:54;2.28;;;0.80;;
67528;SDS011;54366;51.980;5.856;2022-12-07T08:51:27;9.45;;;2.60;;
67528;SDS011;54366;51.980;5.856;2022-12-07T08:53:54;4.20;;;1.85;;
67528;SDS011;54366;51.980;5.856;2022-12-07T08:56:21;3.95;;;1.85;;
67528;SDS011;54366;51.980;5.856;2022-12-07T08:58:48;2.58;;;1.23;;
67528;SDS011;54366;51.980;5.856;2022-12-07T09:01:14;4.82;;;1.65;;
67528;SDS011;54366;51.980;5.856;2022-12-07T09:03:40;3.90;;;1.80;;
67528;SDS011;54366;51.980;5.856;2022-12-07T09:06:07;4.43;;;1.60;;
67528;SDS011;54366;51.980;5.856;2022-12-07T09:08:39;5.15;;;1.85;;
67528;SDS011;54366;51.980;5.856;2022-12-07T09:11:11;3.83;;;1.50;;
67528;SDS011;54366;51.980;5.856;2022-12-07T09:13:37;3.03;;;1.48;;
67528;SDS011;54366;51.980;5.856;2022-12-07T09:16:04;2.28;;;1.27;;
67528;SDS011;54366;51.980;5.856;2022-12-07T09:18:30;3.13;;;1.13;;
67528;SDS011;54366;51.980;5.856;2022-12-07T09:20:57;2.60;;;1.40;;
67528;SDS011;54366;51.980;5.856;2022-12-07T09:23:23;4.45;;;1.30;;
67528;SDS011;54366;51.980;5.856;2022-12-07T09:25:49;3.83;;;1.45;;
67528;SDS011;54366;51.980;5.856;2022-12-07T09:28:16;4.30;;;1.48;;
67528;SDS011;54366;51.980;5.856;2022-12-07T09:30:48;4.85;;;1.42;;
67528;SDS011;54366;51.980;5.856;2022-12-07T09:33:15;3.13;;;1.20;;
67528;SDS011;54366;51.980;5.856;2022-12-07T09:35:45;4.97;;;1.63;;
67528;SDS011;54366;51.980;5.856;2022-12-07T09:38:11;5.53;;;2.08;;
67528;SDS011;54366;51.980;5.856;2022-12-07T09:40:38;6.18;;;2.05;;
67528;SDS011;54366;51.980;5.856;2022-12-07T09:43:05;4.65;;;1.67;;
67528;SDS011;54366;51.980;5.856;2022-12-07T09:45:38;3.58;;;1.23;;
67528;SDS011;54366;51.980;5.856;2022-12-07T09:48:04;2.85;;;1.15;;
67528;SDS011;54366;51.980;5.856;2022-12-07T09:50:39;4.10;;;1.35;;
67528;SDS011;54366;51.980;5.856;2022-12-07T09:53:08;2.88;;;1.23;;
67528;SDS011;54366;51.980;5.856;2022-12-07T09:55:41;2.80;;;1.20;;
67528;SDS011;54366;51.980;5.856;2022-12-07T09:58:11;3.85;;;1.00;;
67528;SDS011;54366;51.980;5.856;2022-12-07T10:01:12;3.38;;;1.30;;
67528;SDS011;54366;51.980;5.856;2022-12-07T10:03:43;2.85;;;1.25;;
67528;SDS011;54366;51.980;5.856;2022-12-07T10:06:39;4.18;;;1.60;;
67528;SDS011;54366;51.980;5.856;2022-12-07T10:09:13;3.00;;;1.60;;
67528;SDS011;54366;51.980;5.856;2022-12-07T10:11:57;3.13;;;1.40;;
67528;SDS011;54366;51.980;5.856;2022-12-07T10:14:36;3.40;;;1.63;;
67528;SDS011;54366;51.980;5.856;2022-12-07T10:20:26;5.20;;;1.85;;
67528;SDS011;54366;51.980;5.856;2022-12-07T10:23:00;2.33;;;1.20;;
67528;SDS011;54366;51.980;5.856;2022-12-07T10:25:34;3.60;;;1.40;;
67528;SDS011;54366;51.980;5.856;2022-12-07T10:28:12;4.88;;;1.35;;
67528;SDS011;54366;51.980;5.856;2022-12-07T10:30:54;3.08;;;1.52;;
67528;SDS011;54366;51.980;5.856;2022-12-07T10:33:31;5.72;;;1.20;;
67528;SDS011;54366;51.980;5.856;2022-12-07T10:36:18;3.97;;;1.42;;
67528;SDS011;54366;51.980;5.856;2022-12-07T10:38:51;3.75;;;1.30;;
67528;SDS011;54366;51.980;5.856;2022-12-07T10:41:43;2.65;;;1.00;;
67528;SDS011;54366;51.980;5.856;2022-12-07T10:44:23;2.55;;;0.80;;
67528;SDS011;54366;51.980;5.856;2022-12-07T10:47:13;3.60;;;1.10;;
67528;SDS011;54366;51.980;5.856;2022-12-07T10:50:12;3.03;;;1.20;;
67528;SDS011;54366;51.980;5.856;2022-12-07T10:56:14;5.00;;;1.15;;
67528;SDS011;54366;51.980;5.856;2022-12-07T10:59:40;3.33;;;0.90;;
67528;SDS011;54366;51.980;5.856;2022-12-07T11:02:32;4.95;;;1.25;;
67528;SDS011;54366;51.980;5.856;2022-12-07T11:05:30;4.07;;;0.95;;
67528;SDS011;54366;51.980;5.856;2022-12-07T11:11:33;2.35;;;0.80;;
67528;SDS011;54366;51.980;5.856;2022-12-07T11:20:51;7.05;;;1.50;;
67528;SDS011;54366;51.980;5.856;2022-12-07T11:23:18;5.15;;;1.25;;
67528;SDS011;54366;51.980;5.856;2022-12-07T11:26:20;5.10;;;1.02;;
67528;SDS011;54366;51.980;5.856;2022-12-07T11:29:24;3.50;;;0.95;;
67528;SDS011;54366;51.980;5.856;2022-12-07T11:32:15;4.35;;;1.08;;
67528;SDS011;54366;51.980;5.856;2022-12-07T11:35:11;2.20;;;0.75;;
67528;SDS011;54366;51.980;5.856;2022-12-07T11:37:49;1.98;;;0.75;;
67528;SDS011;54366;51.980;5.856;2022-12-07T11:40:24;2.80;;;1.50;;
67528;SDS011;54366;51.980;5.856;2022-12-07T11:43:02;5.20;;;1.40;;
67528;SDS011;54366;51.980;5.856;2022-12-07T11:45:52;4.75;;;1.38;;
67528;SDS011;54366;51.980;5.856;2022-12-07T11:48:33;4.00;;;1.08;;
67528;SDS011;54366;51.980;5.856;2022-12-07T11:51:08;4.65;;;1.50;;
67528;SDS011;54366;51.980;5.856;2022-12-07T11:53:40;4.50;;;1.30;;
67528;SDS011;54366;51.980;5.856;2022-12-07T11:56:16;2.60;;;0.90;;
67528;SDS011;54366;51.980;5.856;2022-12-07T11:58:47;2.60;;;0.90;;
67528;SDS011;54366;51.980;5.856;2022-12-07T12:04:24;5.20;;;1.20;;
67528;SDS011;54366;51.980;5.856;2022-12-07T12:07:10;2.83;;;1.00;;
67528;SDS011;54366;51.980;5.856;2022-12-07T12:09:49;3.30;;;0.80;;
67528;SDS011;54366;51.980;5.856;2022-12-07T12:12:45;4.78;;;1.30;;
67528;SDS011;54366;51.980;5.856;2022-12-07T12:15:23;6.60;;;0.98;;
67528;SDS011;54366;51.980;5.856;2022-12-07T12:18:27;2.92;;;0.80;;
67528;SDS011;54366;51.980;5.856;2022-12-07T12:21:22;2.33;;;0.80;;
67528;SDS011;54366;51.980;5.856;2022-12-07T12:26:32;4.25;;;1.15;;
67528;SDS011;54366;51.980;5.856;2022-12-07T12:29:05;2.88;;;1.10;;
67528;SDS011;54366;51.980;5.856;2022-12-07T12:31:35;2.10;;;0.73;;
67528;SDS011;54366;51.980;5.856;2022-12-07T12:37:14;2.78;;;0.80;;
67528;SDS011;54366;51.980;5.856;2022-12-07T12:43:14;3.85;;;1.10;;
67528;SDS011;54366;51.980;5.856;2022-12-07T12:49:32;3.47;;;0.80;;
67528;SDS011;54366;51.980;5.856;2022-12-07T12:55:18;3.78;;;1.10;;
67528;SDS011;54366;51.980;5.856;2022-12-07T12:57:47;2.28;;;1.10;;
67528;SDS011;54366;51.980;5.856;2022-12-07T13:00:34;3.20;;;1.23;;
67528;SDS011;54366;51.980;5.856;2022-12-07T13:03:00;3.58;;;1.55;;
67528;SDS011;54366;51.980;5.856;2022-12-07T13:05:27;5.32;;;1.27;;
67528;SDS011;54366;51.980;5.856;2022-12-07T13:10:44;4.60;;;1.20;;
67528;SDS011;54366;51.980;5.856;2022-12-07T13:19:25;3.67;;;1.40;;
67528;SDS011;54366;51.980;5.856;2022-12-07T13:22:35;4.30;;;1.10;;
67528;SDS011;54366;51.980;5.856;2022-12-07T13:25:12;3.35;;;1.08;;
67528;SDS011;54366;51.980;5.856;2022-12-07T13:27:50;3.67;;;1.10;;
67528;SDS011;54366;51.980;5.856;2022-12-07T13:30:40;3.30;;;1.15;;
67528;SDS011;54366;51.980;5.856;2022-12-07T13:33:29;2.28;;;0.80;;
67528;SDS011;54366;51.980;5.856;2022-12-07T13:35:56;3.47;;;0.95;;
67528;SDS011;54366;51.980;5.856;2022-12-07T13:38:27;4.13;;;1.10;;
67528;SDS011;54366;51.980;5.856;2022-12-07T13:41:02;3.80;;;0.70;;
67528;SDS011;54366;51.980;5.856;2022-12-07T13:43:29;2.70;;;0.88;;
67528;SDS011;54366;51.980;5.856;2022-12-07T13:45:58;3.53;;;0.90;;
67528;SDS011;54366;51.980;5.856;2022-12-07T13:48:34;5.47;;;0.77;;
67528;SDS011;54366;51.980;5.856;2022-12-07T13:51:25;3.45;;;1.00;;
67528;SDS011;54366;51.980;5.856;2022-12-07T13:53:54;3.72;;;0.93;;
67528;SDS011;54366;51.980;5.856;2022-12-07T13:56:31;3.53;;;0.80;;
67528;SDS011;54366;51.980;5.856;2022-12-07T14:01:25;2.33;;;0.73;;
67528;SDS011;54366;51.980;5.856;2022-12-07T14:03:52;2.30;;;1.00;;
67528;SDS011;54366;51.980;5.856;2022-12-07T14:06:25;3.45;;;0.80;;
67528;SDS011;54366;51.980;5.856;2022-12-07T14:09:14;2.63;;;0.70;;
67528;SDS011;54366;51.980;5.856;2022-12-07T14:11:49;1.52;;;0.50;;
67528;SDS011;54366;51.980;5.856;2022-12-07T14:14:18;2.30;;;0.55;;
67528;SDS011;54366;51.980;5.856;2022-12-07T14:17:01;2.97;;;0.77;;
67528;SDS011;54366;51.980;5.856;2022-12-07T14:19:50;3.05;;;1.00;;
67528;SDS011;54366;51.980;5.856;2022-12-07T14:22:23;4.05;;;1.20;;
67528;SDS011;54366;51.980;5.856;2022-12-07T14:24:58;2.72;;;1.30;;
67528;SDS011;54366;51.980;5.856;2022-12-07T14:27:52;2.70;;;0.98;;
67528;SDS011;54366;51.980;5.856;2022-12-07T14:30:22;3.55;;;1.00;;
67528;SDS011;54366;51.980;5.856;2022-12-07T14:32:54;3.67;;;1.42;;
67528;SDS011;54366;51.980;5.856;2022-12-07T14:35:26;4.05;;;1.10;;
67528;SDS011;54366;51.980;5.856;2022-12-07T14:37:53;3.60;;;1.05;;
67528;SDS011;54366;51.980;5.856;2022-12-07T14:40:23;5.13;;;0.80;;
67528;SDS011;54366;51.980;5.856;2022-12-07T14:42:57;2.65;;;0.63;;
67528;SDS011;54366;51.980;5.856;2022-12-07T14:45:29;2.15;;;0.88;;
67528;SDS011;54366;51.980;5.856;2022-12-07T14:47:55;2.47;;;1.20;;
67528;SDS011;54366;51.980;5.856;2022-12-07T14:50:21;1.92;;;0.40;;
67528;SDS011;54366;51.980;5.856;2022-12-07T14:52:49;2.42;;;0.98;;
67528;SDS011;54366;51.980;5.856;2022-12-07T14:55:27;1.80;;;0.63;;
67528;SDS011;54366;51.980;5.856;2022-12-07T14:57:55;2.42;;;0.77;;
67528;SDS011;54366;51.980;5.856;2022-12-07T15:00:23;2.15;;;1.10;;
67528;SDS011;54366;51.980;5.856;2022-12-07T15:02:52;3.38;;;1.77;;
67528;SDS011;54366;51.980;5.856;2022-12-07T15:05:18;3.00;;;1.83;;
67528;SDS011;54366;51.980;5.856;2022-12-07T15:07:45;4.75;;;2.20;;
67528;SDS011;54366;51.980;5.856;2022-12-07T15:10:16;5.55;;;1.63;;
67528;SDS011;54366;51.980;5.856;2022-12-07T15:12:45;3.58;;;1.20;;
67528;SDS011;54366;51.980;5.856;2022-12-07T15:15:12;3.85;;;1.65;;
67528;SDS011;54366;51.980;5.856;2022-12-07T15:17:39;4.25;;;1.73;;
67528;SDS011;54366;51.980;5.856;2022-12-07T15:20:07;3.72;;;1.75;;
67528;SDS011;54366;51.980;5.856;2022-12-07T15:22:37;2.90;;;1.50;;
67528;SDS011;54366;51.980;5.856;2022-12-07T15:25:03;2.58;;;1.17;;
67528;SDS011;54366;51.980;5.856;2022-12-07T15:27:31;2.53;;;1.38;;
67528;SDS011;54366;51.980;5.856;2022-12-07T15:29:58;2.35;;;1.23;;
67528;SDS011;54366;51.980;5.856;2022-12-07T15:32:24;1.92;;;1.10;;
67528;SDS011;54366;51.980;5.856;2022-12-07T15:34:50;2.63;;;1.40;;
67528;SDS011;54366;51.980;5.856;2022-12-07T15:37:16;4.57;;;1.40;;
67528;SDS011;54366;51.980;5.856;2022-12-07T15:39:43;2.85;;;1.40;;
67528;SDS011;54366;51.980;5.856;2022-12-07T15:42:09;3.95;;;1.83;;
67528;SDS011;54366;51.980;5.856;2022-12-07T15:44:35;3.70;;;1.73;;
67528;SDS011;54366;51.980;5.856;2022-12-07T15:49:46;5.65;;;2.80;;
67528;SDS011;54366;51.980;5.856;2022-12-07T15:52:12;4.68;;;2.67;;
67528;SDS011;54366;51.980;5.856;2022-12-07T15:54:39;5.28;;;2.70;;
67528;SDS011;54366;51.980;5.856;2022-12-07T15:57:05;4.13;;;2.22;;
67528;SDS011;54366;51.980;5.856;2022-12-07T15:59:31;4.55;;;2.28;;
67528;SDS011;54366;51.980;5.856;2022-12-07T16:01:58;5.03;;;1.73;;
67528;SDS011;54366;51.980;5.856;2022-12-07T16:04:26;4.45;;;1.80;;
67528;SDS011;54366;51.980;5.856;2022-12-07T16:06:53;3.42;;;1.42;;
67528;SDS011;54366;51.980;5.856;2022-12-07T16:09:20;4.65;;;1.83;;
67528;SDS011;54366;51.980;5.856;2022-12-07T16:11:46;3.67;;;1.83;;
67528;SDS011;54366;51.980;5.856;2022-12-07T16:14:13;2.92;;;1.75;;
67528;SDS011;54366;51.980;5.856;2022-12-07T16:16:39;4.25;;;1.85;;
67528;SDS011;54366;51.980;5.856;2022-12-07T16:19:05;3.78;;;1.70;;
67528;SDS011;54366;51.980;5.856;2022-12-07T16:21:33;2.90;;;1.83;;
67528;SDS011;54366;51.980;5.856;2022-12-07T16:24:00;2.40;;;1.25;;
67528;SDS011;54366;51.980;5.856;2022-12-07T16:26:26;2.53;;;1.20;;
67528;SDS011;54366;51.980;5.856;2022-12-07T16:28:53;3.67;;;1.70;;
67528;SDS011;54366;51.980;5.856;2022-12-07T16:31:21;3.05;;;1.85;;
67528;SDS011;54366;51.980;5.856;2022-12-07T16:33:50;4.13;;;2.38;;